Tropical Cyclones
[Index]
Main Index Home Page Stock Weather Photos Extreme Storms Discussion Storm News and Storm Chasing Reports Tropical Cyclones / Hurricanes / Typhoons Weather Data and Links Wild Fires / Bushfires Weather Observation Techniques Weather Picture Catalogue Tornado Pictures and Reports Stock Video Footage and DVDs for sale
Season 1953-1954 Tropical Cyclone 195408 Track Map
Season 1953-1954 Summaries: [BoM-AU] [JTWC-AU] [JTWC-SIO] [JTWC-SPAC] [JTWC-SH]
<<- Previous TC | JTWC 1953-1954 Season | Next TC ->>

click for intensity scale information  Lat/long Grid: Show Hide

 Date Labels: Show Hide

Joint Typhoon Warning Centre Cyclone Data

Name: 195408
Number: 210 / 5408

12 Feb 1954 12:00 UTC to 22 Feb 1954 00:00 UTC

    date/time    lat    long     hPa   cat  kts
1954-02-12 12   10.7   177.7                              
1954-02-12 18   11.4   177.0                              
1954-02-13 00   11.9   176.0                              
1954-02-13 06   12.1   174.8                              
1954-02-13 12   12.4   173.6                              
1954-02-13 18   12.8   172.3                              
1954-02-14 00   13.2   171.0                              
1954-02-14 06   13.6   170.1                              
1954-02-14 12   14.0   169.3                              
1954-02-14 18   14.2   168.6                              
1954-02-15 00   14.5   167.8                              
1954-02-15 06   15.2   166.8                              
1954-02-15 12   16.0   165.8                              
1954-02-15 18   16.9   164.7                              
1954-02-16 00   17.7   163.6                              
1954-02-16 06   18.4   162.7                              
1954-02-16 12   19.0   162.1                              
1954-02-16 18   19.2   161.5                              
1954-02-17 00   19.5   161.0                              
1954-02-17 06   20.1   160.4                              
1954-02-17 12   20.8   159.8                              
1954-02-17 18   21.4   158.8                              
1954-02-18 00   22.0   157.7                              
1954-02-18 06   22.7   156.9                              
1954-02-18 12   23.4   156.0                              
1954-02-18 18   24.3   155.2                              
1954-02-19 00   25.1   154.3                              
1954-02-19 06   25.7   154.1                              
1954-02-19 12   26.1   154.3                              
1954-02-19 18   26.4   154.2                              
1954-02-20 00   26.8   153.8                              
1954-02-20 06   27.5   153.0                              
1954-02-20 12   28.4   152.2                              
1954-02-20 18   28.7   151.6                              
1954-02-21 00   29.3   151.0                              
1954-02-21 06   31.0   150.5                              
1954-02-21 12   33.0   150.2                              
1954-02-21 18   34.6   150.2                              
1954-02-22 00   36.0   150.5                              
Winds are 1-min average.

Tropical cyclone tracks developed by Michael Bath using data from the Joint Typhoon Warning Centre Best Tracks and Google Maps.


[Australian Severe Weather index] [Copyright Notice] [Email Contacts] [Search This Site] [Privacy Policy]
Document: tropical_cyclone_195408.htm Updated: 18 September 2016